Terminal Aerodrome Forecast
Issued by NWS

Home | Current Version | Previous Version | Text Only | Print | Product List | Glossary On
Versions: 1 2 3 4 5 6 7 8 9 10 11 12 13 14 15 16 17 18 19 20 21
000
FTUS43 KMPX 251100 RRA
TAFAXN
TAF
KAXN 251145Z 2512/2612 21007KT P6SM SCT007 OVC025
      TEMPO 2512/2515 BKN007
     FM251500 33006KT 5SM -SN BR SCT015 OVC040
     FM251900 33007KT P6SM BKN012 OVC040
     FM260200 36008KT 5SM BR BKN006 OVC012=

USA.gov is the U.S. government's official web portal to all federal, state and local government web resources and services.